sensor_id;sensor_type;location;lat;lon;timestamp;temperature;humidity
2897;DHT22;1458;49.728;9.228;2024-03-29T00:00:59;4.70;98.60
2897;DHT22;1458;49.728;9.228;2024-03-29T00:03:25;4.60;99.90
2897;DHT22;1458;49.728;9.228;2024-03-29T00:05:52;4.40;99.90
2897;DHT22;1458;49.728;9.228;2024-03-29T00:08:21;4.50;99.90
2897;DHT22;1458;49.728;9.228;2024-03-29T00:10:49;4.60;99.90
2897;DHT22;1458;49.728;9.228;2024-03-29T00:13:15;4.50;99.90
2897;DHT22;1458;49.728;9.228;2024-03-29T00:15:42;4.70;99.90
2897;DHT22;1458;49.728;9.228;2024-03-29T00:18:08;4.70;99.90
2897;DHT22;1458;49.728;9.228;2024-03-29T00:20:34;4.50;99.90
2897;DHT22;1458;49.728;9.228;2024-03-29T00:23:01;4.50;99.90
2897;DHT22;1458;49.728;9.228;2024-03-29T00:25:27;4.60;99.90
2897;DHT22;1458;49.728;9.228;2024-03-29T00:27:55;4.90;99.90
2897;DHT22;1458;49.728;9.228;2024-03-29T00:30:22;5.20;97.20
2897;DHT22;1458;49.728;9.228;2024-03-29T00:32:48;5.10;96.40
2897;DHT22;1458;49.728;9.228;2024-03-29T00:35:15;5.20;96.10
2897;DHT22;1458;49.728;9.228;2024-03-29T00:37:41;5.00;95.80
2897;DHT22;1458;49.728;9.228;2024-03-29T00:40:08;4.80;96.20
2897;DHT22;1458;49.728;9.228;2024-03-29T00:42:36;4.90;97.70
2897;DHT22;1458;49.728;9.228;2024-03-29T00:45:05;5.10;97.60
2897;DHT22;1458;49.728;9.228;2024-03-29T00:47:31;5.20;96.70
2897;DHT22;1458;49.728;9.228;2024-03-29T00:49:58;5.40;95.60
2897;DHT22;1458;49.728;9.228;2024-03-29T00:52:25;5.50;95.60
2897;DHT22;1458;49.728;9.228;2024-03-29T00:54:51;5.40;96.40
2897;DHT22;1458;49.728;9.228;2024-03-29T00:57:18;5.40;96.10
2897;DHT22;1458;49.728;9.228;2024-03-29T00:59:44;5.30;97.30
2897;DHT22;1458;49.728;9.228;2024-03-29T01:02:13;5.20;97.80
2897;DHT22;1458;49.728;9.228;2024-03-29T01:04:39;5.20;98.30
2897;DHT22;1458;49.728;9.228;2024-03-29T01:07:06;5.20;99.00
2897;DHT22;1458;49.728;9.228;2024-03-29T01:09:32;5.30;98.90
2897;DHT22;1458;49.728;9.228;2024-03-29T01:11:59;5.20;99.90
2897;DHT22;1458;49.728;9.228;2024-03-29T01:14:25;5.20;99.90
2897;DHT22;1458;49.728;9.228;2024-03-29T01:16:52;5.20;99.80
2897;DHT22;1458;49.728;9.228;2024-03-29T01:19:20;5.30;99.90
2897;DHT22;1458;49.728;9.228;2024-03-29T01:21:46;5.40;99.90
2897;DHT22;1458;49.728;9.228;2024-03-29T01:24:13;5.50;99.90
2897;DHT22;1458;49.728;9.228;2024-03-29T01:26:39;5.50;99.40
2897;DHT22;1458;49.728;9.228;2024-03-29T01:29:05;5.40;99.70
2897;DHT22;1458;49.728;9.228;2024-03-29T01:31:32;5.60;99.90
2897;DHT22;1458;49.728;9.228;2024-03-29T01:33:58;5.70;99.90
2897;DHT22;1458;49.728;9.228;2024-03-29T01:36:26;5.70;99.90
2897;DHT22;1458;49.728;9.228;2024-03-29T01:38:53;5.80;99.90
2897;DHT22;1458;49.728;9.228;2024-03-29T01:41:19;5.80;99.90
2897;DHT22;1458;49.728;9.228;2024-03-29T01:43:46;5.80;99.30
2897;DHT22;1458;49.728;9.228;2024-03-29T01:46:13;5.80;99.90
2897;DHT22;1458;49.728;9.228;2024-03-29T01:48:41;5.90;99.90
2897;DHT22;1458;49.728;9.228;2024-03-29T01:51:11;5.90;99.30
2897;DHT22;1458;49.728;9.228;2024-03-29T01:53:42;5.80;99.90
2897;DHT22;1458;49.728;9.228;2024-03-29T01:56:10;5.80;99.90
2897;DHT22;1458;49.728;9.228;2024-03-29T01:58:39;5.80;99.90
2897;DHT22;1458;49.728;9.228;2024-03-29T02:01:07;5.80;99.80
2897;DHT22;1458;49.728;9.228;2024-03-29T02:03:35;6.10;97.10
2897;DHT22;1458;49.728;9.228;2024-03-29T02:06:03;6.20;94.90
2897;DHT22;1458;49.728;9.228;2024-03-29T02:08:32;6.20;94.80
2897;DHT22;1458;49.728;9.228;2024-03-29T02:11:03;6.30;94.50
2897;DHT22;1458;49.728;9.228;2024-03-29T02:13:31;6.40;93.90
2897;DHT22;1458;49.728;9.228;2024-03-29T02:15:57;6.40;93.40
2897;DHT22;1458;49.728;9.228;2024-03-29T02:18:25;6.30;93.30
2897;DHT22;1458;49.728;9.228;2024-03-29T02:20:52;6.30;92.90
2897;DHT22;1458;49.728;9.228;2024-03-29T02:23:20;6.40;92.80
2897;DHT22;1458;49.728;9.228;2024-03-29T02:25:53;6.30;93.10
2897;DHT22;1458;49.728;9.228;2024-03-29T02:28:22;6.20;94.40
2897;DHT22;1458;49.728;9.228;2024-03-29T02:30:50;6.20;94.70
2897;DHT22;1458;49.728;9.228;2024-03-29T02:33:17;6.20;95.20
2897;DHT22;1458;49.728;9.228;2024-03-29T02:35:45;6.30;95.10
2897;DHT22;1458;49.728;9.228;2024-03-29T02:38:12;6.40;93.70
2897;DHT22;1458;49.728;9.228;2024-03-29T02:40:40;6.50;92.80
2897;DHT22;1458;49.728;9.228;2024-03-29T02:43:08;6.60;91.60
2897;DHT22;1458;49.728;9.228;2024-03-29T02:45:36;6.60;91.00
2897;DHT22;1458;49.728;9.228;2024-03-29T02:48:03;6.70;90.70
2897;DHT22;1458;49.728;9.228;2024-03-29T02:50:30;6.70;90.00
2897;DHT22;1458;49.728;9.228;2024-03-29T02:52:57;6.70;90.30
2897;DHT22;1458;49.728;9.228;2024-03-29T02:55:24;6.60;90.70
2897;DHT22;1458;49.728;9.228;2024-03-29T02:57:51;6.70;89.50
2897;DHT22;1458;49.728;9.228;2024-03-29T03:00:20;6.80;87.00
2897;DHT22;1458;49.728;9.228;2024-03-29T03:02:47;6.90;85.60
2897;DHT22;1458;49.728;9.228;2024-03-29T03:05:14;6.90;85.10
2897;DHT22;1458;49.728;9.228;2024-03-29T03:07:41;6.90;83.70
2897;DHT22;1458;49.728;9.228;2024-03-29T03:10:26;6.90;84.40
2897;DHT22;1458;49.728;9.228;2024-03-29T03:13:11;6.80;84.60
2897;DHT22;1458;49.728;9.228;2024-03-29T03:15:39;7.00;85.60
2897;DHT22;1458;49.728;9.228;2024-03-29T03:18:07;7.10;83.00
2897;DHT22;1458;49.728;9.228;2024-03-29T03:20:33;7.10;83.90
2897;DHT22;1458;49.728;9.228;2024-03-29T03:23:01;7.00;86.20
2897;DHT22;1458;49.728;9.228;2024-03-29T03:25:28;6.90;87.30
2897;DHT22;1458;49.728;9.228;2024-03-29T03:27:54;7.00;86.70
2897;DHT22;1458;49.728;9.228;2024-03-29T03:30:22;7.00;86.60
2897;DHT22;1458;49.728;9.228;2024-03-29T03:32:50;7.00;86.60
2897;DHT22;1458;49.728;9.228;2024-03-29T03:35:18;7.00;87.70
2897;DHT22;1458;49.728;9.228;2024-03-29T03:37:44;7.00;87.70
2897;DHT22;1458;49.728;9.228;2024-03-29T03:40:12;7.10;86.50
2897;DHT22;1458;49.728;9.228;2024-03-29T03:42:38;7.10;86.70
2897;DHT22;1458;49.728;9.228;2024-03-29T03:45:06;7.00;87.30
2897;DHT22;1458;49.728;9.228;2024-03-29T03:47:33;7.00;85.40
2897;DHT22;1458;49.728;9.228;2024-03-29T03:50:02;7.00;84.40
2897;DHT22;1458;49.728;9.228;2024-03-29T03:52:28;6.90;84.80
2897;DHT22;1458;49.728;9.228;2024-03-29T03:54:56;7.00;84.50
2897;DHT22;1458;49.728;9.228;2024-03-29T03:57:22;7.00;84.90
2897;DHT22;1458;49.728;9.228;2024-03-29T03:59:50;7.10;84.50
2897;DHT22;1458;49.728;9.228;2024-03-29T04:02:16;7.20;84.10
2897;DHT22;1458;49.728;9.228;2024-03-29T04:04:48;7.10;84.90
2897;DHT22;1458;49.728;9.228;2024-03-29T04:07:15;7.20;83.30
2897;DHT22;1458;49.728;9.228;2024-03-29T04:09:43;7.30;82.00
2897;DHT22;1458;49.728;9.228;2024-03-29T04:12:09;7.10;83.40
2897;DHT22;1458;49.728;9.228;2024-03-29T04:14:37;7.20;85.50
2897;DHT22;1458;49.728;9.228;2024-03-29T04:17:03;7.20;84.20
2897;DHT22;1458;49.728;9.228;2024-03-29T04:19:31;7.10;84.30
2897;DHT22;1458;49.728;9.228;2024-03-29T04:21:57;7.10;83.00
2897;DHT22;1458;49.728;9.228;2024-03-29T04:24:28;7.10;82.20
2897;DHT22;1458;49.728;9.228;2024-03-29T04:26:54;7.20;83.00
2897;DHT22;1458;49.728;9.228;2024-03-29T04:29:21;7.20;81.60
2897;DHT22;1458;49.728;9.228;2024-03-29T04:31:48;7.30;81.50
2897;DHT22;1458;49.728;9.228;2024-03-29T04:34:15;7.30;81.60
2897;DHT22;1458;49.728;9.228;2024-03-29T04:36:42;7.40;82.10
2897;DHT22;1458;49.728;9.228;2024-03-29T04:39:09;7.40;81.60
2897;DHT22;1458;49.728;9.228;2024-03-29T04:41:38;7.70;75.80
2897;DHT22;1458;49.728;9.228;2024-03-29T04:44:05;7.60;79.50
2897;DHT22;1458;49.728;9.228;2024-03-29T04:46:33;7.50;81.90
2897;DHT22;1458;49.728;9.228;2024-03-29T04:49:01;7.50;82.30
2897;DHT22;1458;49.728;9.228;2024-03-29T04:51:28;7.60;84.30
2897;DHT22;1458;49.728;9.228;2024-03-29T04:53:56;7.70;83.40
2897;DHT22;1458;49.728;9.228;2024-03-29T04:56:23;7.50;86.50
2897;DHT22;1458;49.728;9.228;2024-03-29T04:58:52;7.50;88.90
2897;DHT22;1458;49.728;9.228;2024-03-29T05:01:19;7.40;91.80
2897;DHT22;1458;49.728;9.228;2024-03-29T05:03:50;7.60;91.90
2897;DHT22;1458;49.728;9.228;2024-03-29T05:06:17;7.50;93.70
2897;DHT22;1458;49.728;9.228;2024-03-29T05:08:45;7.40;94.50
2897;DHT22;1458;49.728;9.228;2024-03-29T05:11:12;7.40;95.40
2897;DHT22;1458;49.728;9.228;2024-03-29T05:13:41;7.30;97.10
2897;DHT22;1458;49.728;9.228;2024-03-29T05:16:09;7.20;99.60
2897;DHT22;1458;49.728;9.228;2024-03-29T05:18:37;7.20;99.90
2897;DHT22;1458;49.728;9.228;2024-03-29T05:21:04;7.20;99.90
2897;DHT22;1458;49.728;9.228;2024-03-29T05:23:32;7.10;99.90
2897;DHT22;1458;49.728;9.228;2024-03-29T05:26:00;7.20;99.90
2897;DHT22;1458;49.728;9.228;2024-03-29T05:28:27;7.10;99.90
2897;DHT22;1458;49.728;9.228;2024-03-29T05:30:55;7.10;99.90
2897;DHT22;1458;49.728;9.228;2024-03-29T05:33:23;7.10;99.90
2897;DHT22;1458;49.728;9.228;2024-03-29T05:35:51;7.10;99.90
2897;DHT22;1458;49.728;9.228;2024-03-29T05:38:19;7.10;99.90
2897;DHT22;1458;49.728;9.228;2024-03-29T05:40:46;7.10;99.90
2897;DHT22;1458;49.728;9.228;2024-03-29T05:43:13;7.10;99.90
2897;DHT22;1458;49.728;9.228;2024-03-29T05:45:41;7.00;99.90
2897;DHT22;1458;49.728;9.228;2024-03-29T05:48:08;7.10;99.90
2897;DHT22;1458;49.728;9.228;2024-03-29T05:50:37;7.20;99.90
2897;DHT22;1458;49.728;9.228;2024-03-29T05:53:04;7.20;99.90
2897;DHT22;1458;49.728;9.228;2024-03-29T05:55:32;7.20;99.90
2897;DHT22;1458;49.728;9.228;2024-03-29T05:58:03;7.20;99.90
2897;DHT22;1458;49.728;9.228;2024-03-29T06:00:32;7.20;99.90
2897;DHT22;1458;49.728;9.228;2024-03-29T06:03:00;7.30;99.90
2897;DHT22;1458;49.728;9.228;2024-03-29T06:05:29;7.30;99.90
2897;DHT22;1458;49.728;9.228;2024-03-29T06:07:58;7.20;99.90
2897;DHT22;1458;49.728;9.228;2024-03-29T06:10:25;7.20;99.90
2897;DHT22;1458;49.728;9.228;2024-03-29T06:12:52;7.20;99.90
2897;DHT22;1458;49.728;9.228;2024-03-29T06:15:20;7.30;99.90
2897;DHT22;1458;49.728;9.228;2024-03-29T06:18:05;7.40;99.90
2897;DHT22;1458;49.728;9.228;2024-03-29T06:20:33;7.40;99.90
2897;DHT22;1458;49.728;9.228;2024-03-29T06:23:02;7.50;99.90
2897;DHT22;1458;49.728;9.228;2024-03-29T06:25:30;7.50;99.90
2897;DHT22;1458;49.728;9.228;2024-03-29T06:27:57;7.60;99.90
2897;DHT22;1458;49.728;9.228;2024-03-29T06:30:25;7.60;99.90
2897;DHT22;1458;49.728;9.228;2024-03-29T06:32:53;7.70;99.90
2897;DHT22;1458;49.728;9.228;2024-03-29T06:35:20;7.60;99.90
2897;DHT22;1458;49.728;9.228;2024-03-29T06:37:48;7.60;99.90
2897;DHT22;1458;49.728;9.228;2024-03-29T06:40:16;7.80;99.90
2897;DHT22;1458;49.728;9.228;2024-03-29T06:42:44;7.80;99.90
2897;DHT22;1458;49.728;9.228;2024-03-29T06:45:12;7.80;99.90
2897;DHT22;1458;49.728;9.228;2024-03-29T06:47:39;7.70;99.90
2897;DHT22;1458;49.728;9.228;2024-03-29T06:50:07;7.80;99.90
2897;DHT22;1458;49.728;9.228;2024-03-29T06:52:35;7.80;99.90
2897;DHT22;1458;49.728;9.228;2024-03-29T06:55:03;7.80;99.90
2897;DHT22;1458;49.728;9.228;2024-03-29T06:57:32;7.80;99.90
2897;DHT22;1458;49.728;9.228;2024-03-29T07:00:02;7.70;99.90
2897;DHT22;1458;49.728;9.228;2024-03-29T07:02:30;7.80;99.90
2897;DHT22;1458;49.728;9.228;2024-03-29T07:04:57;8.00;99.90
2897;DHT22;1458;49.728;9.228;2024-03-29T07:07:31;8.10;99.90
2897;DHT22;1458;49.728;9.228;2024-03-29T07:09:59;8.10;99.90
2897;DHT22;1458;49.728;9.228;2024-03-29T07:12:26;8.20;99.90
2897;DHT22;1458;49.728;9.228;2024-03-29T07:14:55;8.20;99.90
2897;DHT22;1458;49.728;9.228;2024-03-29T07:17:23;8.10;99.90
2897;DHT22;1458;49.728;9.228;2024-03-29T07:19:50;8.00;99.90
2897;DHT22;1458;49.728;9.228;2024-03-29T07:22:18;8.00;99.90
2897;DHT22;1458;49.728;9.228;2024-03-29T07:24:45;8.00;99.90
2897;DHT22;1458;49.728;9.228;2024-03-29T07:27:13;8.10;99.90
2897;DHT22;1458;49.728;9.228;2024-03-29T07:29:43;8.30;99.90
2897;DHT22;1458;49.728;9.228;2024-03-29T07:32:13;8.40;99.90
2897;DHT22;1458;49.728;9.228;2024-03-29T07:34:41;8.50;99.90
2897;DHT22;1458;49.728;9.228;2024-03-29T07:37:08;8.70;99.90
2897;DHT22;1458;49.728;9.228;2024-03-29T07:39:40;8.70;99.90
2897;DHT22;1458;49.728;9.228;2024-03-29T07:42:08;8.80;99.90
2897;DHT22;1458;49.728;9.228;2024-03-29T07:44:35;8.90;99.90
2897;DHT22;1458;49.728;9.228;2024-03-29T07:47:02;9.00;99.90
2897;DHT22;1458;49.728;9.228;2024-03-29T07:49:32;9.00;99.90
2897;DHT22;1458;49.728;9.228;2024-03-29T07:51:59;9.00;99.90
2897;DHT22;1458;49.728;9.228;2024-03-29T07:54:31;9.00;99.90
2897;DHT22;1458;49.728;9.228;2024-03-29T07:56:58;9.10;99.80
2897;DHT22;1458;49.728;9.228;2024-03-29T07:59:27;9.30;99.20
2897;DHT22;1458;49.728;9.228;2024-03-29T08:01:55;9.30;98.80
2897;DHT22;1458;49.728;9.228;2024-03-29T08:04:23;9.30;99.90
2897;DHT22;1458;49.728;9.228;2024-03-29T08:06:53;9.40;99.40
2897;DHT22;1458;49.728;9.228;2024-03-29T08:09:20;9.50;98.30
2897;DHT22;1458;49.728;9.228;2024-03-29T08:11:48;9.60;98.00
2897;DHT22;1458;49.728;9.228;2024-03-29T08:14:16;9.60;98.30
2897;DHT22;1458;49.728;9.228;2024-03-29T08:16:43;9.80;98.90
2897;DHT22;1458;49.728;9.228;2024-03-29T08:19:11;9.80;96.90
2897;DHT22;1458;49.728;9.228;2024-03-29T08:21:38;9.80;96.70
2897;DHT22;1458;49.728;9.228;2024-03-29T08:24:07;9.60;96.00
2897;DHT22;1458;49.728;9.228;2024-03-29T08:26:34;9.50;97.10
2897;DHT22;1458;49.728;9.228;2024-03-29T08:29:02;9.50;96.80
2897;DHT22;1458;49.728;9.228;2024-03-29T08:31:30;9.60;96.80
2897;DHT22;1458;49.728;9.228;2024-03-29T08:33:57;9.50;96.70
2897;DHT22;1458;49.728;9.228;2024-03-29T08:36:25;9.50;96.50
2897;DHT22;1458;49.728;9.228;2024-03-29T08:38:51;9.40;95.70
2897;DHT22;1458;49.728;9.228;2024-03-29T08:41:20;9.50;96.50
2897;DHT22;1458;49.728;9.228;2024-03-29T08:43:48;9.60;96.40
2897;DHT22;1458;49.728;9.228;2024-03-29T08:46:15;9.50;97.90
2897;DHT22;1458;49.728;9.228;2024-03-29T08:48:45;9.60;99.40
2897;DHT22;1458;49.728;9.228;2024-03-29T08:51:12;9.60;99.90
2897;DHT22;1458;49.728;9.228;2024-03-29T08:53:40;9.60;99.90
2897;DHT22;1458;49.728;9.228;2024-03-29T08:56:08;9.60;99.90
2897;DHT22;1458;49.728;9.228;2024-03-29T08:58:36;9.40;99.90
2897;DHT22;1458;49.728;9.228;2024-03-29T09:01:04;9.30;99.90
2897;DHT22;1458;49.728;9.228;2024-03-29T09:03:32;9.40;99.90
2897;DHT22;1458;49.728;9.228;2024-03-29T09:05:59;9.40;99.90
2897;DHT22;1458;49.728;9.228;2024-03-29T09:08:27;9.40;99.90
2897;DHT22;1458;49.728;9.228;2024-03-29T09:10:54;9.40;99.90
2897;DHT22;1458;49.728;9.228;2024-03-29T09:13:22;9.40;99.90
2897;DHT22;1458;49.728;9.228;2024-03-29T09:15:50;9.60;99.90
2897;DHT22;1458;49.728;9.228;2024-03-29T09:18:18;9.60;99.90
2897;DHT22;1458;49.728;9.228;2024-03-29T09:20:56;9.60;99.90
2897;DHT22;1458;49.728;9.228;2024-03-29T09:23:25;9.80;99.90
2897;DHT22;1458;49.728;9.228;2024-03-29T09:25:53;9.70;99.90
2897;DHT22;1458;49.728;9.228;2024-03-29T09:28:22;9.70;99.90
2897;DHT22;1458;49.728;9.228;2024-03-29T09:30:56;9.60;99.90
2897;DHT22;1458;49.728;9.228;2024-03-29T09:33:24;9.60;99.90
2897;DHT22;1458;49.728;9.228;2024-03-29T09:35:52;9.60;99.90
2897;DHT22;1458;49.728;9.228;2024-03-29T09:38:20;9.70;99.90
2897;DHT22;1458;49.728;9.228;2024-03-29T09:40:51;9.80;99.90
2897;DHT22;1458;49.728;9.228;2024-03-29T09:43:27;9.80;99.90
2897;DHT22;1458;49.728;9.228;2024-03-29T09:45:56;9.80;99.90
2897;DHT22;1458;49.728;9.228;2024-03-29T09:48:24;9.70;99.90
2897;DHT22;1458;49.728;9.228;2024-03-29T09:50:54;9.60;99.90
2897;DHT22;1458;49.728;9.228;2024-03-29T09:53:23;9.60;99.90
2897;DHT22;1458;49.728;9.228;2024-03-29T09:55:52;9.60;99.90
2897;DHT22;1458;49.728;9.228;2024-03-29T09:58:19;9.60;99.90
2897;DHT22;1458;49.728;9.228;2024-03-29T10:00:47;9.60;99.90
2897;DHT22;1458;49.728;9.228;2024-03-29T10:03:15;9.70;99.90
2897;DHT22;1458;49.728;9.228;2024-03-29T10:05:45;9.90;99.90
2897;DHT22;1458;49.728;9.228;2024-03-29T10:08:14;10.00;99.90
2897;DHT22;1458;49.728;9.228;2024-03-29T10:10:42;10.20;99.90
2897;DHT22;1458;49.728;9.228;2024-03-29T10:13:10;10.20;99.90
2897;DHT22;1458;49.728;9.228;2024-03-29T10:15:37;10.40;99.90
2897;DHT22;1458;49.728;9.228;2024-03-29T10:18:09;10.50;99.90
2897;DHT22;1458;49.728;9.228;2024-03-29T10:20:38;10.80;99.90
2897;DHT22;1458;49.728;9.228;2024-03-29T10:23:05;11.00;98.60
2897;DHT22;1458;49.728;9.228;2024-03-29T10:25:34;11.30;99.90
2897;DHT22;1458;49.728;9.228;2024-03-29T10:28:02;11.40;99.00
2897;DHT22;1458;49.728;9.228;2024-03-29T10:30:29;11.70;96.10
2897;DHT22;1458;49.728;9.228;2024-03-29T10:32:57;11.90;95.60
2897;DHT22;1458;49.728;9.228;2024-03-29T10:35:25;12.20;94.40
2897;DHT22;1458;49.728;9.228;2024-03-29T10:37:54;12.00;94.40
2897;DHT22;1458;49.728;9.228;2024-03-29T10:40:22;12.30;94.90
2897;DHT22;1458;49.728;9.228;2024-03-29T10:42:50;12.40;95.20
2897;DHT22;1458;49.728;9.228;2024-03-29T10:45:20;12.30;93.50
2897;DHT22;1458;49.728;9.228;2024-03-29T10:47:49;12.20;94.10
2897;DHT22;1458;49.728;9.228;2024-03-29T10:50:19;12.20;93.70
2897;DHT22;1458;49.728;9.228;2024-03-29T10:52:50;12.30;94.00
2897;DHT22;1458;49.728;9.228;2024-03-29T10:55:20;12.50;94.80
2897;DHT22;1458;49.728;9.228;2024-03-29T10:57:51;12.50;94.20
2897;DHT22;1458;49.728;9.228;2024-03-29T11:00:21;12.50;93.40
2897;DHT22;1458;49.728;9.228;2024-03-29T11:02:50;12.50;93.20
2897;DHT22;1458;49.728;9.228;2024-03-29T11:05:22;12.70;93.90
2897;DHT22;1458;49.728;9.228;2024-03-29T11:07:50;13.10;93.30
2897;DHT22;1458;49.728;9.228;2024-03-29T11:10:30;13.20;92.90
2897;DHT22;1458;49.728;9.228;2024-03-29T11:13:09;13.10;93.30
2897;DHT22;1458;49.728;9.228;2024-03-29T11:15:41;13.10;92.60
2897;DHT22;1458;49.728;9.228;2024-03-29T11:18:12;13.10;92.90
2897;DHT22;1458;49.728;9.228;2024-03-29T11:20:44;13.30;89.90
2897;DHT22;1458;49.728;9.228;2024-03-29T11:23:18;13.40;92.40
2897;DHT22;1458;49.728;9.228;2024-03-29T11:25:49;13.80;91.80
2897;DHT22;1458;49.728;9.228;2024-03-29T11:28:23;13.80;90.70
2897;DHT22;1458;49.728;9.228;2024-03-29T11:30:52;14.10;88.70
2897;DHT22;1458;49.728;9.228;2024-03-29T11:33:29;13.90;89.50
2897;DHT22;1458;49.728;9.228;2024-03-29T11:36:00;13.90;90.40
2897;DHT22;1458;49.728;9.228;2024-03-29T11:38:33;14.00;87.60
2897;DHT22;1458;49.728;9.228;2024-03-29T11:41:04;14.10;87.40
2897;DHT22;1458;49.728;9.228;2024-03-29T11:43:33;14.00;86.10
2897;DHT22;1458;49.728;9.228;2024-03-29T11:46:02;13.90;86.30
2897;DHT22;1458;49.728;9.228;2024-03-29T11:48:31;13.60;88.30
2897;DHT22;1458;49.728;9.228;2024-03-29T11:51:00;13.70;90.30
2897;DHT22;1458;49.728;9.228;2024-03-29T11:53:29;13.80;88.90
2897;DHT22;1458;49.728;9.228;2024-03-29T11:55:57;13.90;90.40
2897;DHT22;1458;49.728;9.228;2024-03-29T11:58:28;13.90;90.30
2897;DHT22;1458;49.728;9.228;2024-03-29T12:00:57;13.80;90.20
2897;DHT22;1458;49.728;9.228;2024-03-29T12:03:26;13.70;90.80
2897;DHT22;1458;49.728;9.228;2024-03-29T12:05:56;13.70;91.90
2897;DHT22;1458;49.728;9.228;2024-03-29T12:08:29;13.70;91.60
2897;DHT22;1458;49.728;9.228;2024-03-29T12:10:58;13.60;91.90
2897;DHT22;1458;49.728;9.228;2024-03-29T12:13:27;13.50;93.50
2897;DHT22;1458;49.728;9.228;2024-03-29T12:15:55;13.40;91.80
2897;DHT22;1458;49.728;9.228;2024-03-29T12:18:24;13.20;92.60
2897;DHT22;1458;49.728;9.228;2024-03-29T12:20:55;13.00;93.70
2897;DHT22;1458;49.728;9.228;2024-03-29T12:23:23;12.90;94.70
2897;DHT22;1458;49.728;9.228;2024-03-29T12:25:54;12.80;95.60
2897;DHT22;1458;49.728;9.228;2024-03-29T12:28:24;12.70;96.40
2897;DHT22;1458;49.728;9.228;2024-03-29T12:30:54;12.50;97.50
2897;DHT22;1458;49.728;9.228;2024-03-29T12:33:23;12.40;98.70
2897;DHT22;1458;49.728;9.228;2024-03-29T12:35:51;12.40;98.30
2897;DHT22;1458;49.728;9.228;2024-03-29T12:38:21;12.40;98.90
2897;DHT22;1458;49.728;9.228;2024-03-29T12:40:50;12.50;99.40
2897;DHT22;1458;49.728;9.228;2024-03-29T12:43:20;12.50;99.70
2897;DHT22;1458;49.728;9.228;2024-03-29T12:45:49;12.60;99.90
2897;DHT22;1458;49.728;9.228;2024-03-29T12:48:20;12.50;99.90
2897;DHT22;1458;49.728;9.228;2024-03-29T12:50:49;12.20;99.90
2897;DHT22;1458;49.728;9.228;2024-03-29T12:53:17;12.10;99.90
2897;DHT22;1458;49.728;9.228;2024-03-29T12:55:46;12.10;99.90
2897;DHT22;1458;49.728;9.228;2024-03-29T12:58:15;12.10;99.90
2897;DHT22;1458;49.728;9.228;2024-03-29T13:00:46;12.10;99.90
2897;DHT22;1458;49.728;9.228;2024-03-29T13:03:14;12.00;99.90
2897;DHT22;1458;49.728;9.228;2024-03-29T13:05:42;12.00;99.90
2897;DHT22;1458;49.728;9.228;2024-03-29T13:08:11;12.00;99.90
2897;DHT22;1458;49.728;9.228;2024-03-29T13:10:41;12.00;99.90
2897;DHT22;1458;49.728;9.228;2024-03-29T13:13:09;12.00;99.90
2897;DHT22;1458;49.728;9.228;2024-03-29T13:15:38;12.00;99.90
2897;DHT22;1458;49.728;9.228;2024-03-29T13:18:07;12.00;99.90
2897;DHT22;1458;49.728;9.228;2024-03-29T13:20:36;12.00;99.90
2897;DHT22;1458;49.728;9.228;2024-03-29T13:23:10;12.00;99.90
2897;DHT22;1458;49.728;9.228;2024-03-29T13:25:39;11.90;99.90
2897;DHT22;1458;49.728;9.228;2024-03-29T13:28:06;11.80;99.90
2897;DHT22;1458;49.728;9.228;2024-03-29T13:30:36;11.70;99.90
2897;DHT22;1458;49.728;9.228;2024-03-29T13:33:08;11.70;99.90
2897;DHT22;1458;49.728;9.228;2024-03-29T13:35:37;11.70;99.90
2897;DHT22;1458;49.728;9.228;2024-03-29T13:38:05;11.70;99.90
2897;DHT22;1458;49.728;9.228;2024-03-29T13:40:33;11.80;99.90
2897;DHT22;1458;49.728;9.228;2024-03-29T13:43:01;11.90;99.90
2897;DHT22;1458;49.728;9.228;2024-03-29T13:45:28;11.90;99.90
2897;DHT22;1458;49.728;9.228;2024-03-29T13:47:56;11.90;99.90
2897;DHT22;1458;49.728;9.228;2024-03-29T13:50:24;11.90;99.90
2897;DHT22;1458;49.728;9.228;2024-03-29T13:52:51;11.80;99.90
2897;DHT22;1458;49.728;9.228;2024-03-29T13:55:20;11.80;99.90
2897;DHT22;1458;49.728;9.228;2024-03-29T13:57:52;11.80;99.90
2897;DHT22;1458;49.728;9.228;2024-03-29T14:00:21;11.80;99.90
2897;DHT22;1458;49.728;9.228;2024-03-29T14:02:48;11.80;99.90
2897;DHT22;1458;49.728;9.228;2024-03-29T14:05:16;11.80;99.90
2897;DHT22;1458;49.728;9.228;2024-03-29T14:07:43;11.80;99.90
2897;DHT22;1458;49.728;9.228;2024-03-29T14:10:11;11.80;99.90
2897;DHT22;1458;49.728;9.228;2024-03-29T14:12:39;11.70;99.90
2897;DHT22;1458;49.728;9.228;2024-03-29T14:15:08;11.70;99.90
2897;DHT22;1458;49.728;9.228;2024-03-29T14:17:36;11.60;99.90
2897;DHT22;1458;49.728;9.228;2024-03-29T14:20:04;11.60;99.90
2897;DHT22;1458;49.728;9.228;2024-03-29T14:22:32;11.50;99.90
2897;DHT22;1458;49.728;9.228;2024-03-29T14:25:01;11.40;99.90
2897;DHT22;1458;49.728;9.228;2024-03-29T14:27:29;11.40;99.90
2897;DHT22;1458;49.728;9.228;2024-03-29T14:29:56;11.50;99.90
2897;DHT22;1458;49.728;9.228;2024-03-29T14:32:26;11.50;99.90
2897;DHT22;1458;49.728;9.228;2024-03-29T14:34:54;11.70;99.90
2897;DHT22;1458;49.728;9.228;2024-03-29T14:37:24;11.70;99.90
2897;DHT22;1458;49.728;9.228;2024-03-29T14:39:52;11.70;99.90
2897;DHT22;1458;49.728;9.228;2024-03-29T14:42:19;11.80;99.90
2897;DHT22;1458;49.728;9.228;2024-03-29T14:44:48;12.00;99.90
2897;DHT22;1458;49.728;9.228;2024-03-29T14:47:16;12.20;99.90
2897;DHT22;1458;49.728;9.228;2024-03-29T14:49:45;12.40;99.90
2897;DHT22;1458;49.728;9.228;2024-03-29T14:52:14;12.40;99.90
2897;DHT22;1458;49.728;9.228;2024-03-29T14:54:42;12.10;99.90
2897;DHT22;1458;49.728;9.228;2024-03-29T14:57:09;11.90;99.90
2897;DHT22;1458;49.728;9.228;2024-03-29T14:59:36;11.80;99.90
2897;DHT22;1458;49.728;9.228;2024-03-29T15:02:04;11.90;99.90
2897;DHT22;1458;49.728;9.228;2024-03-29T15:07:27;12.30;99.90
2897;DHT22;1458;49.728;9.228;2024-03-29T15:09:54;12.40;99.90
2897;DHT22;1458;49.728;9.228;2024-03-29T15:12:22;12.30;99.90
2897;DHT22;1458;49.728;9.228;2024-03-29T15:14:49;12.40;99.90
2897;DHT22;1458;49.728;9.228;2024-03-29T15:17:18;12.30;99.90
2897;DHT22;1458;49.728;9.228;2024-03-29T15:19:46;12.40;99.90
2897;DHT22;1458;49.728;9.228;2024-03-29T15:22:16;12.50;99.90
2897;DHT22;1458;49.728;9.228;2024-03-29T15:24:45;12.50;99.90
2897;DHT22;1458;49.728;9.228;2024-03-29T15:27:12;12.50;99.90
2897;DHT22;1458;49.728;9.228;2024-03-29T15:29:54;12.50;99.90
2897;DHT22;1458;49.728;9.228;2024-03-29T15:32:22;12.50;99.90
2897;DHT22;1458;49.728;9.228;2024-03-29T15:34:52;12.40;99.90
2897;DHT22;1458;49.728;9.228;2024-03-29T15:37:18;12.20;99.90
2897;DHT22;1458;49.728;9.228;2024-03-29T15:39:48;12.20;99.90
2897;DHT22;1458;49.728;9.228;2024-03-29T15:42:15;12.20;99.90
2897;DHT22;1458;49.728;9.228;2024-03-29T15:44:43;12.50;99.90
2897;DHT22;1458;49.728;9.228;2024-03-29T15:47:10;12.60;99.90
2897;DHT22;1458;49.728;9.228;2024-03-29T15:49:40;12.60;99.90
2897;DHT22;1458;49.728;9.228;2024-03-29T15:52:08;12.70;99.90
2897;DHT22;1458;49.728;9.228;2024-03-29T15:54:35;12.80;99.90
2897;DHT22;1458;49.728;9.228;2024-03-29T15:57:05;12.70;99.90
2897;DHT22;1458;49.728;9.228;2024-03-29T15:59:32;12.60;99.90
2897;DHT22;1458;49.728;9.228;2024-03-29T16:02:00;12.60;99.90
2897;DHT22;1458;49.728;9.228;2024-03-29T16:04:27;12.50;99.90
2897;DHT22;1458;49.728;9.228;2024-03-29T16:06:55;12.60;99.90
2897;DHT22;1458;49.728;9.228;2024-03-29T16:09:22;12.70;99.90
2897;DHT22;1458;49.728;9.228;2024-03-29T16:11:50;12.70;99.90
2897;DHT22;1458;49.728;9.228;2024-03-29T16:14:19;12.70;99.90
2897;DHT22;1458;49.728;9.228;2024-03-29T16:16:48;12.80;99.90
2897;DHT22;1458;49.728;9.228;2024-03-29T16:19:16;12.80;99.90
2897;DHT22;1458;49.728;9.228;2024-03-29T16:21:45;12.70;99.90